createdAt,value
2023-01-23T00:00:53.631Z,97970.53
2023-01-23T00:01:55.496Z,97966.09
2023-01-23T00:02:57.622Z,97971.25
2023-01-23T00:03:59.689Z,97968.66
2023-01-23T00:05:01.630Z,97971.94
2023-01-23T00:06:08.199Z,97961.66
2023-01-23T00:07:09.951Z,97954.88
2023-01-23T00:08:11.721Z,97956.03
2023-01-23T00:09:13.647Z,97953.72
2023-01-23T00:10:15.510Z,97957.34
2023-01-23T00:11:19.328Z,97960.00
2023-01-23T00:12:21.138Z,97960.91
2023-01-23T00:13:22.910Z,97956.50
2023-01-23T00:14:24.992Z,97955.56
2023-01-23T00:15:27.819Z,97959.56
2023-01-23T00:16:31.243Z,97960.25
2023-01-23T00:17:33.104Z,97960.03
2023-01-23T00:18:34.905Z,97961.66
2023-01-23T00:19:36.657Z,97966.69
2023-01-23T00:20:39.439Z,97971.00
2023-01-23T00:21:41.309Z,97962.47
2023-01-23T00:22:43.147Z,97957.44
2023-01-23T00:23:46.040Z,97961.78
2023-01-23T00:24:47.837Z,97958.28
2023-01-23T00:25:49.635Z,97966.69
2023-01-23T00:26:51.390Z,97964.94
2023-01-23T00:27:53.661Z,97965.16
2023-01-23T00:28:55.785Z,97963.53
2023-01-23T00:29:57.693Z,97964.44
2023-01-23T00:31:03.848Z,97963.63
2023-01-23T00:32:05.768Z,97969.38
2023-01-23T00:33:07.590Z,97965.75
2023-01-23T00:34:12.073Z,97965.84
2023-01-23T00:35:13.823Z,97970.28
2023-01-23T00:36:15.771Z,97963.53
2023-01-23T00:37:17.792Z,97961.78
2023-01-23T00:38:19.611Z,97964.34
2023-01-23T00:39:22.040Z,97959.00
2023-01-23T00:40:23.867Z,97966.56
2023-01-23T00:41:26.313Z,97969.03
2023-01-23T00:42:28.131Z,97961.22
2023-01-23T00:43:30.627Z,97969.72
2023-01-23T00:44:32.943Z,97964.50
2023-01-23T00:45:35.997Z,97957.50
2023-01-23T00:46:37.916Z,97962.72
2023-01-23T00:47:39.755Z,97959.34
2023-01-23T00:48:41.585Z,97955.88
2023-01-23T00:49:43.347Z,97958.44
2023-01-23T00:50:45.301Z,97963.44
2023-01-23T00:51:47.198Z,97954.00
2023-01-23T00:52:48.985Z,97965.91
2023-01-23T00:53:50.904Z,97959.16
2023-01-23T00:54:52.692Z,97959.84
2023-01-23T00:55:55.667Z,97964.03
2023-01-23T00:56:58.111Z,97954.00
2023-01-23T00:58:00.474Z,97954.94
2023-01-23T00:59:02.256Z,97951.53
2023-01-23T01:00:04.462Z,97959.97
2023-01-23T01:01:06.201Z,97958.19
2023-01-23T01:02:08.076Z,97965.78
2023-01-23T01:03:10.129Z,97958.91
2023-01-23T01:04:11.918Z,97962.19
2023-01-23T01:05:13.869Z,97960.31
2023-01-23T01:06:15.707Z,97955.41
2023-01-23T01:07:17.565Z,97964.75
2023-01-23T01:08:19.743Z,97970.69
2023-01-23T01:09:21.955Z,97977.59
2023-01-23T01:10:23.736Z,97969.19
2023-01-23T01:11:25.738Z,97977.22
2023-01-23T01:12:27.580Z,97985.63
2023-01-23T01:13:30.559Z,97976.97
2023-01-23T01:14:32.275Z,97988.91
2023-01-23T01:15:34.095Z,97983.66
2023-01-23T01:16:35.990Z,97981.91
2023-01-23T01:17:38.025Z,97985.28
2023-01-23T01:18:39.948Z,97984.81
2023-01-23T01:19:41.749Z,97983.38
2023-01-23T01:20:44.213Z,97983.38
2023-01-23T01:21:46.103Z,97980.09
2023-01-23T01:22:47.915Z,97980.00
2023-01-23T01:23:49.766Z,97982.47
2023-01-23T01:24:51.757Z,97983.97
2023-01-23T01:25:53.657Z,97982.25
2023-01-23T01:26:55.452Z,97981.31
2023-01-23T01:27:57.316Z,97982.81
2023-01-23T01:28:59.066Z,97981.09
2023-01-23T01:30:00.899Z,97982.72
2023-01-23T01:31:13.378Z,97982.72
2023-01-23T01:32:15.355Z,97976.78
2023-01-23T01:33:17.120Z,97973.84
2023-01-23T01:34:18.976Z,97973.56
2023-01-23T01:35:21.261Z,97977.28
2023-01-23T01:36:24.757Z,97974.84
2023-01-23T01:37:26.666Z,97980.81
2023-01-23T01:38:29.108Z,97985.94
2023-01-23T01:39:30.986Z,97985.22
2023-01-23T01:40:33.987Z,97987.09
2023-01-23T01:41:36.344Z,97986.38
2023-01-23T01:42:45.062Z,97988.25
2023-01-23T01:43:46.995Z,97984.97
2023-01-23T01:45:07.334Z,97987.63
2023-01-23T01:46:11.805Z,97986.81
2023-01-23T01:47:16.161Z,97991.25
2023-01-23T01:48:19.491Z,97998.16
2023-01-23T01:49:31.596Z,97995.34
2023-01-23T01:50:35.555Z,97985.19
2023-01-23T01:51:41.540Z,97990.09
2023-01-23T01:52:44.413Z,97989.88
2023-01-23T01:53:48.073Z,97988.94
2023-01-23T01:55:07.934Z,97988.00
2023-01-23T01:56:11.738Z,97990.47
2023-01-23T01:57:27.435Z,97983.56
2023-01-23T01:58:29.899Z,97980.53
2023-01-23T01:59:34.321Z,97980.03
2023-01-23T02:00:36.491Z,97979.47
2023-01-23T02:01:39.677Z,97968.59
2023-01-23T02:02:52.727Z,97966.75
2023-01-23T02:03:55.167Z,97968.25
2023-01-23T02:05:11.075Z,97970.81
2023-01-23T02:06:13.122Z,97977.38
2023-01-23T02:07:19.450Z,97972.13
2023-01-23T02:08:30.986Z,97976.91
2023-01-23T02:09:34.202Z,97965.59
2023-01-23T02:10:37.674Z,97965.59
2023-01-23T02:11:39.597Z,97963.00
2023-01-23T02:12:41.416Z,97964.63
2023-01-23T02:13:44.069Z,97968.16
2023-01-23T02:14:45.983Z,97971.44
2023-01-23T02:15:48.393Z,97967.81
2023-01-23T02:16:52.274Z,97973.03
2023-01-23T02:17:55.264Z,97965.47
2023-01-23T02:19:02.414Z,97971.63
2023-01-23T02:20:21.103Z,97971.53
2023-01-23T02:21:25.482Z,97976.47
2023-01-23T02:22:45.847Z,97977.16
2023-01-23T02:23:47.548Z,97973.66
2023-01-23T02:25:12.427Z,97974.47
2023-01-23T02:26:17.269Z,97971.78
2023-01-23T02:27:19.059Z,97975.31
2023-01-23T02:28:20.944Z,97977.72
2023-01-23T02:29:22.778Z,97970.75
2023-01-23T02:30:24.783Z,97974.97
2023-01-23T02:31:26.894Z,97964.44
2023-01-23T02:32:29.569Z,97974.00
2023-01-23T02:33:31.261Z,97968.88
2023-01-23T02:34:33.089Z,97967.16
2023-01-23T02:35:35.844Z,97975.66
2023-01-23T02:36:37.723Z,97974.72
2023-01-23T02:37:42.897Z,97963.53
2023-01-23T02:38:49.614Z,97962.59
2023-01-23T02:39:51.399Z,97962.59
2023-01-23T02:40:54.083Z,97959.31
2023-01-23T02:41:56.442Z,97954.41
2023-01-23T02:42:59.107Z,97961.31
2023-01-23T02:44:02.847Z,97953.47
2023-01-23T02:45:04.880Z,97960.25
2023-01-23T02:46:08.392Z,97950.00
2023-01-23T02:47:12.712Z,97957.78
2023-01-23T02:48:14.642Z,97954.63
2023-01-23T02:49:16.723Z,97955.78
2023-01-23T02:50:18.760Z,97953.22
2023-01-23T02:51:22.263Z,97949.72
2023-01-23T02:52:24.096Z,97951.69
2023-01-23T02:53:26.304Z,97950.78
2023-01-23T02:54:28.118Z,97950.88
2023-01-23T02:55:38.292Z,97940.63
2023-01-23T02:56:42.307Z,97935.47
2023-01-23T02:57:45.614Z,97937.81
2023-01-23T02:59:06.225Z,97938.50
2023-01-23T03:00:17.438Z,97941.78
2023-01-23T03:01:19.556Z,97941.09
2023-01-23T03:02:21.454Z,97931.53
2023-01-23T03:03:23.335Z,97930.50
2023-01-23T03:04:25.463Z,97924.75
2023-01-23T03:05:27.380Z,97925.22
2023-01-23T03:06:31.201Z,97922.66
2023-01-23T03:07:32.987Z,97921.94
2023-01-23T03:08:36.918Z,97919.47
2023-01-23T03:09:38.808Z,97922.16
2023-01-23T03:10:40.638Z,97919.81
2023-01-23T03:11:43.563Z,97925.88
2023-01-23T03:12:45.463Z,97929.50
2023-01-23T03:13:47.801Z,97925.06
2023-01-23T03:14:54.431Z,97939.31
2023-01-23T03:15:58.141Z,97939.09
2023-01-23T03:16:59.947Z,97944.09
2023-01-23T03:18:01.807Z,97936.19
2023-01-23T03:19:09.257Z,97943.78
2023-01-23T03:20:11.400Z,97945.50
2023-01-23T03:21:13.311Z,97943.91
2023-01-23T03:22:15.177Z,97940.38
2023-01-23T03:23:17.475Z,97941.22
2023-01-23T03:24:20.143Z,97937.72
2023-01-23T03:25:22.152Z,97936.66
2023-01-23T03:26:24.062Z,97934.78
2023-01-23T03:27:25.855Z,97940.63
2023-01-23T03:28:47.124Z,97928.50
2023-01-23T03:30:07.219Z,97936.00
2023-01-23T03:31:09.165Z,97932.38
2023-01-23T03:32:12.141Z,97934.03
2023-01-23T03:33:14.002Z,97932.25
2023-01-23T03:34:18.299Z,97930.50
2023-01-23T03:35:20.661Z,97929.81
2023-01-23T03:36:22.517Z,97933.44
2023-01-23T03:37:24.437Z,97933.31
2023-01-23T03:38:26.215Z,97938.47
2023-01-23T03:39:46.587Z,97936.00
2023-01-23T03:41:08.632Z,97938.56
2023-01-23T03:42:10.487Z,97945.22
2023-01-23T03:43:12.299Z,97937.84
2023-01-23T03:44:14.278Z,97939.72
2023-01-23T03:45:16.077Z,97940.41
2023-01-23T03:46:17.957Z,97943.00
2023-01-23T03:47:21.237Z,97943.00
2023-01-23T03:48:23.175Z,97941.13
2023-01-23T03:49:25.018Z,97946.97
2023-01-23T03:50:26.827Z,97950.25
2023-01-23T03:51:28.653Z,97950.25
2023-01-23T03:52:30.511Z,97945.81
2023-01-23T03:53:32.292Z,97952.56
2023-01-23T03:54:34.121Z,97954.31
2023-01-23T03:55:35.977Z,97952.56
2023-01-23T03:56:38.243Z,97952.69
2023-01-23T03:57:40.120Z,97959.56
2023-01-23T03:58:42.050Z,97964.94
2023-01-23T03:59:43.924Z,97959.22
2023-01-23T04:00:45.780Z,97960.59
2023-01-23T04:01:48.352Z,97964.19
2023-01-23T04:02:50.310Z,97959.19
2023-01-23T04:03:52.202Z,97961.97
2023-01-23T04:04:54.022Z,97959.50
2023-01-23T04:05:57.445Z,97959.63
2023-01-23T04:06:59.399Z,97960.44
2023-01-23T04:08:01.364Z,97958.59
2023-01-23T04:09:03.421Z,97958.47
2023-01-23T04:10:05.465Z,97951.81
2023-01-23T04:11:08.675Z,97954.38
2023-01-23T04:12:10.518Z,97951.59
2023-01-23T04:13:12.360Z,97953.22
2023-01-23T04:14:14.216Z,97948.09
2023-01-23T04:15:16.091Z,97956.50
2023-01-23T04:16:17.832Z,97950.66
2023-01-23T04:17:19.697Z,97949.03
2023-01-23T04:18:21.597Z,97950.66
2023-01-23T04:19:23.532Z,97950.66
2023-01-23T04:20:25.563Z,97944.09
2023-01-23T04:21:27.362Z,97938.88
2023-01-23T04:22:29.195Z,97930.09
2023-01-23T04:23:31.031Z,97929.09
2023-01-23T04:24:32.864Z,97929.19
2023-01-23T04:25:34.739Z,97928.50
2023-01-23T04:26:36.514Z,97936.09
2023-01-23T04:27:38.276Z,97933.38
2023-01-23T04:28:40.135Z,97933.19
2023-01-23T04:29:42.489Z,97921.97
2023-01-23T04:30:44.448Z,97921.16
2023-01-23T04:31:46.384Z,97925.91
2023-01-23T04:32:48.282Z,97926.63
2023-01-23T04:33:50.114Z,97923.13
2023-01-23T04:34:51.994Z,97920.44
2023-01-23T04:35:58.516Z,97919.38
2023-01-23T04:37:00.366Z,97922.66
2023-01-23T04:38:02.202Z,97926.88
2023-01-23T04:39:05.002Z,97927.59
2023-01-23T04:40:07.001Z,97936.00
2023-01-23T04:41:10.000Z,97938.47
2023-01-23T04:42:11.807Z,97938.47
2023-01-23T04:43:13.628Z,97930.84
2023-01-23T04:44:21.555Z,97939.72
2023-01-23T04:45:23.383Z,97949.50
2023-01-23T04:46:25.301Z,97955.56
2023-01-23T04:47:27.170Z,97958.94
2023-01-23T04:48:28.970Z,97960.72
2023-01-23T04:49:30.885Z,97957.44
2023-01-23T04:50:33.300Z,97956.63
2023-01-23T04:51:35.143Z,97960.91
2023-01-23T04:52:37.389Z,97965.13
2023-01-23T04:53:39.418Z,97972.59
2023-01-23T04:54:41.289Z,97974.97
2023-01-23T04:55:43.113Z,97965.41
2023-01-23T04:56:45.142Z,97968.88
2023-01-23T04:57:47.011Z,97971.56
2023-01-23T04:58:50.104Z,97983.72
2023-01-23T04:59:52.043Z,97977.97
2023-01-23T05:00:54.095Z,97980.66
2023-01-23T05:01:55.893Z,97985.69
2023-01-23T05:02:57.816Z,97978.56
2023-01-23T05:03:59.703Z,97986.97
2023-01-23T05:05:01.607Z,97991.19
2023-01-23T05:06:03.459Z,97984.19
2023-01-23T05:07:05.294Z,97987.56
2023-01-23T05:08:07.069Z,97985.00
2023-01-23T05:09:08.811Z,97987.56
2023-01-23T05:10:10.972Z,97991.78
2023-01-23T05:11:13.106Z,98000.41
2023-01-23T05:12:14.923Z,97989.66
2023-01-23T05:13:16.754Z,97987.63
2023-01-23T05:14:18.676Z,97980.28
2023-01-23T05:15:21.572Z,97984.47
2023-01-23T05:16:23.282Z,97987.75
2023-01-23T05:17:25.050Z,97985.19
2023-01-23T05:18:26.830Z,97987.03
2023-01-23T05:19:28.644Z,97987.97
2023-01-23T05:20:30.475Z,97992.16
2023-01-23T05:21:32.379Z,97995.44
2023-01-23T05:22:34.166Z,98004.56
2023-01-23T05:23:36.133Z,97995.00
2023-01-23T05:24:37.920Z,97999.31
2023-01-23T05:25:39.867Z,97998.41
2023-01-23T05:26:42.873Z,97991.50
2023-01-23T05:27:44.658Z,97998.97
2023-01-23T05:28:46.568Z,97998.88
2023-01-23T05:29:48.430Z,98012.44
2023-01-23T05:30:50.526Z,98002.97
2023-01-23T05:31:52.338Z,98008.81
2023-01-23T05:32:54.161Z,97996.81
2023-01-23T05:33:56.004Z,98004.63
2023-01-23T05:34:57.878Z,98002.97
2023-01-23T05:36:00.580Z,97995.25
2023-01-23T05:37:02.375Z,98000.63
2023-01-23T05:38:04.200Z,98002.50
2023-01-23T05:39:06.083Z,97999.94
2023-01-23T05:40:09.380Z,98001.69
2023-01-23T05:41:11.243Z,97999.94
2023-01-23T05:42:13.048Z,97999.94
2023-01-23T05:43:15.538Z,97999.13
2023-01-23T05:44:17.487Z,98001.06
2023-01-23T05:45:19.923Z,97999.66
2023-01-23T05:46:21.742Z,97998.50
2023-01-23T05:47:23.579Z,98003.41
2023-01-23T05:48:25.443Z,98000.75
2023-01-23T05:49:27.248Z,98004.81
2023-01-23T05:50:29.069Z,97999.47
2023-01-23T05:51:34.208Z,98006.13
2023-01-23T05:52:36.670Z,98001.81
2023-01-23T05:53:38.561Z,98001.72
2023-01-23T05:54:40.401Z,98008.34
2023-01-23T05:55:42.182Z,97999.84
2023-01-23T05:56:44.089Z,98009.19
2023-01-23T05:57:45.911Z,98004.97
2023-01-23T05:58:47.893Z,97998.44
2023-01-23T05:59:49.723Z,98007.09
2023-01-23T06:00:51.439Z,98013.03
2023-01-23T06:01:53.270Z,98008.69
2023-01-23T06:02:55.122Z,98005.31
2023-01-23T06:03:56.940Z,98004.81
2023-01-23T06:04:58.756Z,98005.53
2023-01-23T06:06:03.640Z,98008.81
2023-01-23T06:07:05.501Z,98011.28
2023-01-23T06:08:07.453Z,98008.94
2023-01-23T06:09:09.941Z,98005.53
2023-01-23T06:10:11.748Z,97995.97
2023-01-23T06:11:13.529Z,98001.94
2023-01-23T06:12:15.548Z,97994.34
2023-01-23T06:13:17.429Z,98003.19
2023-01-23T06:14:19.256Z,98003.31
2023-01-23T06:15:21.049Z,98015.34
2023-01-23T06:16:22.816Z,98009.16
2023-01-23T06:17:24.688Z,98008.94
2023-01-23T06:18:26.507Z,98013.03
2023-01-23T06:19:28.332Z,98003.47
2023-01-23T06:20:30.249Z,98010.94
2023-01-23T06:21:32.052Z,98015.25
2023-01-23T06:22:34.099Z,98018.75
2023-01-23T06:23:35.962Z,98025.63
2023-01-23T06:24:37.798Z,98021.09
2023-01-23T06:25:40.021Z,98031.25
2023-01-23T06:26:41.844Z,98028.50
2023-01-23T06:27:43.759Z,98026.72
2023-01-23T06:28:45.513Z,98027.34
2023-01-23T06:29:47.295Z,98040.03
2023-01-23T06:30:49.211Z,98040.75
2023-01-23T06:31:51.079Z,98047.66
2023-01-23T06:32:53.181Z,98038.41
2023-01-23T06:33:54.983Z,98036.75
2023-01-23T06:34:56.809Z,98032.91
2023-01-23T06:35:59.444Z,98037.44
2023-01-23T06:37:01.285Z,98036.50
2023-01-23T06:38:03.192Z,98044.22
2023-01-23T06:39:05.121Z,98045.16
2023-01-23T06:40:07.625Z,98038.25
2023-01-23T06:41:10.300Z,98045.97
2023-01-23T06:42:12.203Z,98041.53
2023-01-23T06:43:14.075Z,98041.44
2023-01-23T06:44:16.023Z,98044.00
2023-01-23T06:45:18.169Z,98043.06
2023-01-23T06:46:20.167Z,98049.94
2023-01-23T06:47:23.511Z,98039.06
2023-01-23T06:48:25.524Z,98047.00
2023-01-23T06:49:27.331Z,98043.59
2023-01-23T06:50:29.133Z,98058.91
2023-01-23T06:51:30.960Z,98052.72
2023-01-23T06:52:32.817Z,98051.81
2023-01-23T06:53:34.677Z,98051.00
2023-01-23T06:54:36.529Z,98054.38
2023-01-23T06:55:38.454Z,98039.31
2023-01-23T06:56:40.366Z,98052.25
2023-01-23T06:57:42.269Z,98043.59
2023-01-23T06:58:45.429Z,98050.41
2023-01-23T06:59:47.295Z,98055.63
2023-01-23T07:00:49.212Z,98046.16
2023-01-23T07:01:51.108Z,98044.66
2023-01-23T07:02:53.428Z,98047.31
2023-01-23T07:03:55.310Z,98051.53
2023-01-23T07:04:57.402Z,98041.97
2023-01-23T07:06:02.051Z,98054.13
2023-01-23T07:07:03.937Z,98054.31
2023-01-23T07:08:06.133Z,98051.75
2023-01-23T07:09:07.943Z,98057.38
2023-01-23T07:10:10.165Z,98049.59
2023-01-23T07:11:12.401Z,98049.44
2023-01-23T07:12:14.385Z,98047.47
2023-01-23T07:13:16.188Z,98051.59
2023-01-23T07:14:18.002Z,98048.00
2023-01-23T07:15:19.822Z,98048.78
2023-01-23T07:16:21.795Z,98053.94
2023-01-23T07:17:24.202Z,98049.75
2023-01-23T07:18:28.540Z,98050.44
2023-01-23T07:19:30.304Z,98048.59
2023-01-23T07:20:32.247Z,98047.66
2023-01-23T07:21:34.221Z,98042.50
2023-01-23T07:22:36.067Z,98045.06
2023-01-23T07:23:37.890Z,98049.28
2023-01-23T07:24:40.343Z,98041.47
2023-01-23T07:25:42.136Z,98041.78
2023-01-23T07:26:43.929Z,98041.69
2023-01-23T07:27:45.724Z,98043.31
2023-01-23T07:28:47.537Z,98038.06
2023-01-23T07:29:49.310Z,98032.84
2023-01-23T07:30:51.096Z,98042.28
2023-01-23T07:31:53.259Z,98034.81
2023-01-23T07:32:55.287Z,98036.31
2023-01-23T07:33:57.091Z,98043.91
2023-01-23T07:34:58.941Z,98034.69
2023-01-23T07:36:01.204Z,98029.66
2023-01-23T07:37:03.021Z,98044.97
2023-01-23T07:38:04.884Z,98035.50
2023-01-23T07:39:06.737Z,98044.88
2023-01-23T07:40:08.927Z,98042.41
2023-01-23T07:41:10.882Z,98045.78
2023-01-23T07:42:12.759Z,98044.03
2023-01-23T07:43:14.528Z,98042.28
2023-01-23T07:44:17.814Z,98045.78
2023-01-23T07:45:19.647Z,98049.06
2023-01-23T07:46:21.661Z,98045.44
2023-01-23T07:47:23.564Z,98054.69
2023-01-23T07:48:25.425Z,98051.28
2023-01-23T07:49:27.322Z,98053.75
2023-01-23T07:50:29.114Z,98061.34
2023-01-23T07:51:30.952Z,98056.09
2023-01-23T07:52:32.720Z,98056.81
2023-01-23T07:53:34.576Z,98048.97
2023-01-23T07:54:36.633Z,98053.28
2023-01-23T07:55:39.107Z,98044.88
2023-01-23T07:56:40.928Z,98047.00
2023-01-23T07:57:42.992Z,98049.75
2023-01-23T07:58:44.839Z,98040.19
2023-01-23T07:59:47.890Z,98042.66
2023-01-23T08:00:49.786Z,98042.56
2023-01-23T08:01:52.907Z,98043.47
2023-01-23T08:02:54.849Z,98044.53
2023-01-23T08:03:56.840Z,98042.06
2023-01-23T08:04:58.821Z,98035.41
2023-01-23T08:06:00.684Z,98038.88
2023-01-23T08:07:02.596Z,98034.34
2023-01-23T08:08:13.213Z,98035.97
2023-01-23T08:09:15.536Z,98032.22
2023-01-23T08:10:17.470Z,98036.31
2023-01-23T08:11:19.800Z,98037.97
2023-01-23T08:12:21.556Z,98042.06
2023-01-23T08:13:23.400Z,98039.38
2023-01-23T08:14:25.268Z,98034.94
2023-01-23T08:15:27.206Z,98047.69
2023-01-23T08:16:29.342Z,98046.03
2023-01-23T08:17:31.281Z,98051.06
2023-01-23T08:18:33.381Z,98044.41
2023-01-23T08:19:35.203Z,98042.66
2023-01-23T08:20:36.968Z,98039.84
2023-01-23T08:21:38.814Z,98041.59
2023-01-23T08:22:41.303Z,98041.50
2023-01-23T08:23:43.204Z,98046.53
2023-01-23T08:24:45.033Z,98044.66
2023-01-23T08:25:46.824Z,98044.66
2023-01-23T08:26:48.678Z,98043.03
2023-01-23T08:27:50.554Z,98035.41
2023-01-23T08:28:52.443Z,98037.28
2023-01-23T08:29:54.275Z,98044.88
2023-01-23T08:30:56.309Z,98043.03
2023-01-23T08:31:58.131Z,98042.09
2023-01-23T08:33:00.295Z,98036.00
2023-01-23T08:34:02.351Z,98042.91
2023-01-23T08:35:05.105Z,98038.69
2023-01-23T08:36:11.184Z,98051.22
2023-01-23T08:37:13.157Z,98050.97
2023-01-23T08:38:15.491Z,98049.13
2023-01-23T08:39:17.657Z,98046.34
2023-01-23T08:40:19.881Z,98044.47
2023-01-23T08:41:22.104Z,98043.53
2023-01-23T08:42:23.901Z,98046.94
2023-01-23T08:43:25.724Z,98049.38
2023-01-23T08:44:27.656Z,98053.59
2023-01-23T08:45:30.975Z,98050.22
2023-01-23T08:46:32.893Z,98059.78
2023-01-23T08:47:37.131Z,98060.59
2023-01-23T08:48:39.397Z,98057.06
2023-01-23T08:49:41.283Z,98058.72
2023-01-23T08:50:43.527Z,98053.59
2023-01-23T08:51:45.356Z,98053.69
2023-01-23T08:52:47.206Z,98052.06
2023-01-23T08:53:51.929Z,98059.19
2023-01-23T08:54:53.806Z,98063.50
2023-01-23T08:55:59.283Z,98059.19
2023-01-23T08:57:01.376Z,98057.31
2023-01-23T08:58:03.235Z,98055.66
2023-01-23T08:59:05.163Z,98054.03
2023-01-23T09:00:07.337Z,98060.09
2023-01-23T09:01:16.223Z,98060.25
2023-01-23T09:02:18.085Z,98057.78
2023-01-23T09:03:19.838Z,98051.69
2023-01-23T09:04:21.610Z,98056.97
2023-01-23T09:05:23.414Z,98056.13
2023-01-23T09:06:25.281Z,98053.34
2023-01-23T09:07:27.125Z,98058.59
2023-01-23T09:08:29.047Z,98063.72
2023-01-23T09:09:30.875Z,98060.34
2023-01-23T09:10:32.638Z,98063.03
2023-01-23T09:11:34.507Z,98067.44
2023-01-23T09:12:36.654Z,98068.97
2023-01-23T09:13:39.074Z,98066.19
2023-01-23T09:14:40.955Z,98064.31
2023-01-23T09:15:42.759Z,98060.81
2023-01-23T09:16:44.619Z,98060.59
2023-01-23T09:17:46.475Z,98061.31
2023-01-23T09:18:48.443Z,98060.34
2023-01-23T09:19:50.199Z,98064.47
2023-01-23T09:20:52.690Z,98059.09
2023-01-23T09:21:55.251Z,98060.75
2023-01-23T09:22:57.013Z,98057.78
2023-01-23T09:23:59.037Z,98058.94
2023-01-23T09:25:00.870Z,98059.09
2023-01-23T09:26:03.609Z,98061.41
2023-01-23T09:27:05.476Z,98063.88
2023-01-23T09:28:07.334Z,98059.44
2023-01-23T09:29:09.264Z,98058.72
2023-01-23T09:30:11.342Z,98053.00
2023-01-23T09:31:14.485Z,98053.81
2023-01-23T09:32:16.800Z,98058.94
2023-01-23T09:33:18.603Z,98052.88
2023-01-23T09:34:20.453Z,98062.00
2023-01-23T09:35:23.868Z,98055.00
2023-01-23T09:36:41.812Z,98058.38
2023-01-23T09:38:05.196Z,98060.03
2023-01-23T09:39:06.992Z,98066.19
2023-01-23T09:40:15.890Z,98072.75
2023-01-23T09:41:19.546Z,98069.16
2023-01-23T09:42:22.899Z,98071.59
2023-01-23T09:43:36.449Z,98072.66
2023-01-23T09:44:43.164Z,98077.19
2023-01-23T09:45:51.272Z,98072.75
2023-01-23T09:47:02.716Z,98067.84
2023-01-23T09:48:18.456Z,98073.69
2023-01-23T09:49:29.028Z,98076.03
2023-01-23T09:50:33.483Z,98078.28
2023-01-23T09:51:38.100Z,98073.69
2023-01-23T09:52:46.165Z,98081.19
2023-01-23T09:53:48.153Z,98068.25
2023-01-23T09:54:53.529Z,98069.06
2023-01-23T09:56:11.411Z,98067.44
2023-01-23T09:57:22.255Z,98058.06
2023-01-23T09:58:50.373Z,98055.50
2023-01-23T10:00:00.076Z,98056.19
2023-01-23T10:01:02.688Z,98063.69
2023-01-23T10:02:14.457Z,98061.81
2023-01-23T10:03:17.044Z,98059.25
2023-01-23T10:04:20.353Z,98057.38
2023-01-23T10:05:26.304Z,98060.66
2023-01-23T10:06:32.372Z,98064.75
2023-01-23T10:07:34.110Z,98061.22
2023-01-23T10:08:47.335Z,98055.97
2023-01-23T10:10:09.332Z,98050.13
2023-01-23T10:11:11.082Z,98050.03
2023-01-23T10:12:29.984Z,98048.25
2023-01-23T10:13:50.531Z,98043.13
2023-01-23T10:15:31.016Z,98044.06
2023-01-23T10:16:51.247Z,98051.88
2023-01-23T10:18:05.065Z,98047.56
2023-01-23T10:19:25.223Z,98048.38
2023-01-23T10:20:45.412Z,98048.97
2023-01-23T10:21:49.897Z,98047.44
2023-01-23T10:22:54.182Z,98047.56
2023-01-23T10:24:03.919Z,98042.53
2023-01-23T10:25:23.270Z,98041.72
2023-01-23T10:26:29.600Z,98050.13
2023-01-23T10:27:42.462Z,98045.34
2023-01-23T10:28:44.500Z,98045.22
2023-01-23T10:29:51.951Z,98046.63
2023-01-23T10:30:59.234Z,98038.94
2023-01-23T10:32:02.890Z,98040.78
2023-01-23T10:33:15.192Z,98037.38
2023-01-23T10:34:34.867Z,98032.25
2023-01-23T10:35:51.006Z,98031.31
2023-01-23T10:37:11.394Z,98029.44
2023-01-23T10:38:15.864Z,98024.06
2023-01-23T10:39:22.825Z,98026.31
2023-01-23T10:40:43.702Z,98031.19
2023-01-23T10:41:48.548Z,98026.63
2023-01-23T10:42:53.091Z,98028.16
2023-01-23T10:43:55.444Z,98031.31
2023-01-23T10:44:57.359Z,98027.94
2023-01-23T10:45:59.169Z,98034.00
2023-01-23T10:47:02.422Z,98028.84
2023-01-23T10:48:24.142Z,98031.69
2023-01-23T10:49:30.933Z,98031.78
2023-01-23T10:50:39.380Z,98029.09
2023-01-23T10:51:47.914Z,98030.97
2023-01-23T10:52:49.809Z,98029.09
2023-01-23T10:54:11.445Z,98026.41
2023-01-23T10:55:20.890Z,98024.53
2023-01-23T10:56:22.975Z,98019.63
2023-01-23T10:57:26.730Z,98016.94
2023-01-23T10:58:37.611Z,98019.41
2023-01-23T10:59:39.561Z,98022.78
2023-01-23T11:00:46.184Z,98018.34
2023-01-23T11:01:57.757Z,98015.66
2023-01-23T11:03:18.663Z,98015.06
2023-01-23T11:04:23.863Z,98013.91
2023-01-23T11:05:46.819Z,98011.06
2023-01-23T11:07:01.543Z,98011.78
2023-01-23T11:08:03.392Z,98013.63
2023-01-23T11:09:18.511Z,98007.69
2023-01-23T11:10:21.824Z,97999.84
2023-01-23T11:11:23.569Z,97996.59
2023-01-23T11:12:33.204Z,98001.72
2023-01-23T11:13:35.031Z,98007.56
2023-01-23T11:14:38.771Z,98012.03
2023-01-23T11:15:42.353Z,98001.84
2023-01-23T11:16:44.314Z,98005.81
2023-01-23T11:17:46.231Z,98001.38
2023-01-23T11:19:08.166Z,98002.19
2023-01-23T11:20:33.653Z,97998.78
2023-01-23T11:21:37.615Z,97997.72
2023-01-23T11:22:42.375Z,97994.34
2023-01-23T11:23:44.180Z,97996.56
2023-01-23T11:24:45.963Z,98004.16
2023-01-23T11:25:49.505Z,97996.31
2023-01-23T11:26:59.313Z,98001.59
2023-01-23T11:28:18.941Z,97993.97
2023-01-23T11:29:23.401Z,97984.88
2023-01-23T11:30:43.931Z,97983.25
2023-01-23T11:31:46.797Z,97990.16
2023-01-23T11:32:55.337Z,97987.44
2023-01-23T11:33:58.815Z,97980.31
2023-01-23T11:35:12.696Z,97985.22
2023-01-23T11:36:17.336Z,97968.94
2023-01-23T11:37:19.107Z,97977.63
2023-01-23T11:38:30.940Z,97983.69
2023-01-23T11:39:38.770Z,97973.41
2023-01-23T11:40:42.166Z,97971.88
2023-01-23T11:41:45.333Z,97976.22
2023-01-23T11:42:47.716Z,97970.13
2023-01-23T11:43:50.543Z,97977.63
2023-01-23T11:44:53.102Z,97983.47
2023-01-23T11:46:10.300Z,97979.00
2023-01-23T11:47:27.125Z,97978.75
2023-01-23T11:48:47.579Z,97977.13
2023-01-23T11:50:08.105Z,97973.75
2023-01-23T11:51:33.008Z,97965.19
2023-01-23T11:52:35.005Z,97969.41
2023-01-23T11:53:42.671Z,97960.63
2023-01-23T11:54:47.789Z,97964.97
2023-01-23T11:56:07.980Z,97969.16
2023-01-23T11:57:29.569Z,97973.38
2023-01-23T11:58:39.700Z,97969.03
2023-01-23T12:00:02.838Z,97964.97
2023-01-23T12:01:10.531Z,97959.00
2023-01-23T12:02:15.445Z,97956.78
2023-01-23T12:03:35.779Z,97955.84
2023-01-23T12:04:56.646Z,97956.66
2023-01-23T12:06:20.751Z,97957.47
2023-01-23T12:07:26.204Z,97953.28
2023-01-23T12:08:34.810Z,97961.91
2023-01-23T12:09:48.500Z,97966.03
2023-01-23T12:11:13.985Z,97967.75
2023-01-23T12:12:30.597Z,97968.47
2023-01-23T12:13:44.403Z,97974.31
2023-01-23T12:14:54.827Z,97973.28
2023-01-23T12:15:56.599Z,97973.38
2023-01-23T12:17:04.396Z,97967.41
2023-01-23T12:18:15.307Z,97970.00
2023-01-23T12:19:17.066Z,97972.56
2023-01-23T12:20:21.940Z,97973.38
2023-01-23T12:21:26.850Z,97969.88
2023-01-23T12:22:43.952Z,97975.03
2023-01-23T12:24:06.413Z,97968.22
2023-01-23T12:25:29.852Z,97976.66
2023-01-23T12:26:32.198Z,97968.00
2023-01-23T12:27:43.651Z,97964.59
2023-01-23T12:28:54.918Z,97959.44
2023-01-23T12:29:59.648Z,97957.44
2023-01-23T12:31:11.934Z,97947.16
2023-01-23T12:32:13.829Z,97951.22
2023-01-23T12:33:32.816Z,97948.53
2023-01-23T12:34:45.524Z,97952.06
2023-01-23T12:35:58.396Z,97950.19
2023-01-23T12:37:29.825Z,97950.44